sensor_id;sensor_type;location;lat;lon;timestamp;P1;durP1;ratioP1;P2;durP2;ratioP2
22005;SDS011;11167;46.988;15.470;2023-05-03T00:01:44;1.12;;;0.90;;
22005;SDS011;11167;46.988;15.470;2023-05-03T00:03:45;2.15;;;1.05;;
22005;SDS011;11167;46.988;15.470;2023-05-03T00:05:48;1.87;;;0.98;;
22005;SDS011;11167;46.988;15.470;2023-05-03T00:07:49;1.10;;;1.00;;
22005;SDS011;11167;46.988;15.470;2023-05-03T00:09:50;1.27;;;0.80;;
22005;SDS011;11167;46.988;15.470;2023-05-03T00:11:51;0.98;;;0.88;;
22005;SDS011;11167;46.988;15.470;2023-05-03T00:13:53;0.72;;;0.62;;
22005;SDS011;11167;46.988;15.470;2023-05-03T00:15:56;1.05;;;0.95;;
22005;SDS011;11167;46.988;15.470;2023-05-03T00:17:57;1.53;;;0.90;;
22005;SDS011;11167;46.988;15.470;2023-05-03T00:19:58;1.52;;;1.07;;
22005;SDS011;11167;46.988;15.470;2023-05-03T00:21:59;0.85;;;0.70;;
22005;SDS011;11167;46.988;15.470;2023-05-03T00:24:00;0.82;;;0.70;;
22005;SDS011;11167;46.988;15.470;2023-05-03T00:26:02;1.40;;;0.90;;
22005;SDS011;11167;46.988;15.470;2023-05-03T00:28:03;1.07;;;0.82;;
22005;SDS011;11167;46.988;15.470;2023-05-03T00:30:04;1.00;;;0.90;;
22005;SDS011;11167;46.988;15.470;2023-05-03T00:32:06;0.70;;;0.70;;
22005;SDS011;11167;46.988;15.470;2023-05-03T00:34:08;1.60;;;0.90;;
22005;SDS011;11167;46.988;15.470;2023-05-03T00:36:09;1.50;;;1.00;;
22005;SDS011;11167;46.988;15.470;2023-05-03T00:38:12;1.10;;;0.90;;
22005;SDS011;11167;46.988;15.470;2023-05-03T00:40:16;0.95;;;0.70;;
22005;SDS011;11167;46.988;15.470;2023-05-03T00:42:18;1.10;;;0.80;;
22005;SDS011;11167;46.988;15.470;2023-05-03T00:44:19;1.00;;;0.82;;
22005;SDS011;11167;46.988;15.470;2023-05-03T00:46:20;1.60;;;0.90;;
22005;SDS011;11167;46.988;15.470;2023-05-03T00:48:21;1.22;;;0.85;;
22005;SDS011;11167;46.988;15.470;2023-05-03T00:50:23;1.05;;;0.80;;
22005;SDS011;11167;46.988;15.470;2023-05-03T00:52:24;1.17;;;0.90;;
22005;SDS011;11167;46.988;15.470;2023-05-03T00:54:27;1.07;;;0.82;;
22005;SDS011;11167;46.988;15.470;2023-05-03T00:56:29;0.78;;;0.70;;
22005;SDS011;11167;46.988;15.470;2023-05-03T00:58:31;1.40;;;0.85;;
22005;SDS011;11167;46.988;15.470;2023-05-03T01:00:34;0.60;;;0.60;;
22005;SDS011;11167;46.988;15.470;2023-05-03T01:02:35;0.88;;;0.70;;
22005;SDS011;11167;46.988;15.470;2023-05-03T01:04:36;1.25;;;0.80;;
22005;SDS011;11167;46.988;15.470;2023-05-03T01:09:01;1.27;;;0.90;;
22005;SDS011;11167;46.988;15.470;2023-05-03T01:11:26;1.00;;;0.75;;
22005;SDS011;11167;46.988;15.470;2023-05-03T01:13:33;0.68;;;0.60;;
22005;SDS011;11167;46.988;15.470;2023-05-03T01:17:57;0.85;;;0.70;;
22005;SDS011;11167;46.988;15.470;2023-05-03T01:20:03;0.70;;;0.70;;
22005;SDS011;11167;46.988;15.470;2023-05-03T01:24:21;1.40;;;0.90;;
22005;SDS011;11167;46.988;15.470;2023-05-03T01:26:25;1.50;;;0.90;;
22005;SDS011;11167;46.988;15.470;2023-05-03T01:28:27;1.92;;;0.80;;
22005;SDS011;11167;46.988;15.470;2023-05-03T01:30:28;0.98;;;0.80;;
22005;SDS011;11167;46.988;15.470;2023-05-03T01:32:37;0.70;;;0.68;;
22005;SDS011;11167;46.988;15.470;2023-05-03T01:34:50;1.20;;;0.70;;
22005;SDS011;11167;46.988;15.470;2023-05-03T01:36:52;1.00;;;0.80;;
22005;SDS011;11167;46.988;15.470;2023-05-03T01:38:56;1.05;;;0.70;;
22005;SDS011;11167;46.988;15.470;2023-05-03T01:40:58;0.95;;;0.82;;
22005;SDS011;11167;46.988;15.470;2023-05-03T01:43:02;1.50;;;0.85;;
22005;SDS011;11167;46.988;15.470;2023-05-03T01:45:05;1.10;;;0.80;;
22005;SDS011;11167;46.988;15.470;2023-05-03T01:47:06;1.15;;;0.90;;
22005;SDS011;11167;46.988;15.470;2023-05-03T01:49:08;1.20;;;0.60;;
22005;SDS011;11167;46.988;15.470;2023-05-03T01:51:10;1.02;;;0.80;;
22005;SDS011;11167;46.988;15.470;2023-05-03T01:53:12;1.12;;;0.75;;
22005;SDS011;11167;46.988;15.470;2023-05-03T01:55:13;0.95;;;0.70;;
22005;SDS011;11167;46.988;15.470;2023-05-03T01:57:15;1.12;;;0.70;;
22005;SDS011;11167;46.988;15.470;2023-05-03T01:59:16;0.82;;;0.70;;
22005;SDS011;11167;46.988;15.470;2023-05-03T02:01:17;0.80;;;0.70;;
22005;SDS011;11167;46.988;15.470;2023-05-03T02:03:18;0.90;;;0.70;;
22005;SDS011;11167;46.988;15.470;2023-05-03T02:05:20;0.88;;;0.80;;
22005;SDS011;11167;46.988;15.470;2023-05-03T02:07:21;3.00;;;0.70;;
22005;SDS011;11167;46.988;15.470;2023-05-03T02:09:22;1.32;;;0.70;;
22005;SDS011;11167;46.988;15.470;2023-05-03T02:11:24;0.70;;;0.70;;
22005;SDS011;11167;46.988;15.470;2023-05-03T02:13:25;1.62;;;0.80;;
22005;SDS011;11167;46.988;15.470;2023-05-03T02:15:26;1.07;;;0.90;;
22005;SDS011;11167;46.988;15.470;2023-05-03T02:17:28;1.00;;;0.90;;
22005;SDS011;11167;46.988;15.470;2023-05-03T02:19:29;0.90;;;0.72;;
22005;SDS011;11167;46.988;15.470;2023-05-03T02:21:30;0.80;;;0.80;;
22005;SDS011;11167;46.988;15.470;2023-05-03T02:23:32;1.10;;;0.72;;
22005;SDS011;11167;46.988;15.470;2023-05-03T02:25:34;1.02;;;0.70;;
22005;SDS011;11167;46.988;15.470;2023-05-03T02:27:35;1.17;;;0.90;;
22005;SDS011;11167;46.988;15.470;2023-05-03T02:29:36;1.00;;;0.90;;
22005;SDS011;11167;46.988;15.470;2023-05-03T02:31:37;1.02;;;0.80;;
22005;SDS011;11167;46.988;15.470;2023-05-03T02:33:38;1.85;;;1.00;;
22005;SDS011;11167;46.988;15.470;2023-05-03T02:35:39;0.88;;;0.80;;
22005;SDS011;11167;46.988;15.470;2023-05-03T02:37:40;1.35;;;0.90;;
22005;SDS011;11167;46.988;15.470;2023-05-03T02:39:41;0.88;;;0.80;;
22005;SDS011;11167;46.988;15.470;2023-05-03T02:41:42;0.88;;;0.80;;
22005;SDS011;11167;46.988;15.470;2023-05-03T02:43:43;1.27;;;0.88;;
22005;SDS011;11167;46.988;15.470;2023-05-03T02:45:44;1.02;;;0.80;;
22005;SDS011;11167;46.988;15.470;2023-05-03T02:47:45;1.22;;;0.90;;
22005;SDS011;11167;46.988;15.470;2023-05-03T02:49:46;0.90;;;0.90;;
22005;SDS011;11167;46.988;15.470;2023-05-03T02:51:48;2.22;;;0.72;;
22005;SDS011;11167;46.988;15.470;2023-05-03T02:53:49;1.05;;;0.93;;
22005;SDS011;11167;46.988;15.470;2023-05-03T02:55:50;0.80;;;0.80;;
22005;SDS011;11167;46.988;15.470;2023-05-03T02:57:51;0.80;;;0.80;;
22005;SDS011;11167;46.988;15.470;2023-05-03T02:59:52;1.80;;;1.00;;
22005;SDS011;11167;46.988;15.470;2023-05-03T03:01:53;0.90;;;0.90;;
22005;SDS011;11167;46.988;15.470;2023-05-03T03:03:55;0.70;;;0.70;;
22005;SDS011;11167;46.988;15.470;2023-05-03T03:05:56;0.78;;;0.70;;
22005;SDS011;11167;46.988;15.470;2023-05-03T03:07:57;0.70;;;0.70;;
22005;SDS011;11167;46.988;15.470;2023-05-03T03:09:58;0.80;;;0.80;;
22005;SDS011;11167;46.988;15.470;2023-05-03T03:11:59;0.88;;;0.85;;
22005;SDS011;11167;46.988;15.470;2023-05-03T03:14:02;1.05;;;0.95;;
22005;SDS011;11167;46.988;15.470;2023-05-03T03:16:05;0.88;;;0.88;;
22005;SDS011;11167;46.988;15.470;2023-05-03T03:18:07;1.00;;;0.90;;
22005;SDS011;11167;46.988;15.470;2023-05-03T03:20:08;0.80;;;0.80;;
22005;SDS011;11167;46.988;15.470;2023-05-03T03:22:12;1.37;;;1.00;;
22005;SDS011;11167;46.988;15.470;2023-05-03T03:24:13;1.00;;;0.90;;
22005;SDS011;11167;46.988;15.470;2023-05-03T03:26:15;2.55;;;0.90;;
22005;SDS011;11167;46.988;15.470;2023-05-03T03:28:16;0.75;;;0.75;;
22005;SDS011;11167;46.988;15.470;2023-05-03T03:30:17;0.82;;;0.70;;
22005;SDS011;11167;46.988;15.470;2023-05-03T03:32:18;1.07;;;0.90;;
22005;SDS011;11167;46.988;15.470;2023-05-03T03:34:21;1.65;;;0.85;;
22005;SDS011;11167;46.988;15.470;2023-05-03T03:36:22;1.00;;;0.90;;
22005;SDS011;11167;46.988;15.470;2023-05-03T03:38:23;2.15;;;1.00;;
22005;SDS011;11167;46.988;15.470;2023-05-03T03:40:25;0.95;;;0.85;;
22005;SDS011;11167;46.988;15.470;2023-05-03T03:42:27;0.82;;;0.82;;
22005;SDS011;11167;46.988;15.470;2023-05-03T03:44:28;1.10;;;0.90;;
22005;SDS011;11167;46.988;15.470;2023-05-03T03:46:30;1.10;;;1.00;;
22005;SDS011;11167;46.988;15.470;2023-05-03T03:48:31;0.80;;;0.80;;
22005;SDS011;11167;46.988;15.470;2023-05-03T03:50:32;1.32;;;0.90;;
22005;SDS011;11167;46.988;15.470;2023-05-03T03:52:33;0.80;;;0.80;;
22005;SDS011;11167;46.988;15.470;2023-05-03T03:54:35;0.70;;;0.70;;
22005;SDS011;11167;46.988;15.470;2023-05-03T03:56:36;1.17;;;0.90;;
22005;SDS011;11167;46.988;15.470;2023-05-03T03:58:37;1.05;;;0.80;;
22005;SDS011;11167;46.988;15.470;2023-05-03T04:00:38;1.00;;;0.78;;
22005;SDS011;11167;46.988;15.470;2023-05-03T04:02:39;0.65;;;0.60;;
22005;SDS011;11167;46.988;15.470;2023-05-03T04:04:40;1.15;;;0.93;;
22005;SDS011;11167;46.988;15.470;2023-05-03T04:06:42;0.78;;;0.78;;
22005;SDS011;11167;46.988;15.470;2023-05-03T04:11:08;0.93;;;0.75;;
22005;SDS011;11167;46.988;15.470;2023-05-03T04:13:11;1.00;;;0.80;;
22005;SDS011;11167;46.988;15.470;2023-05-03T04:15:12;1.45;;;0.80;;
22005;SDS011;11167;46.988;15.470;2023-05-03T04:17:14;1.05;;;0.95;;
22005;SDS011;11167;46.988;15.470;2023-05-03T04:19:15;0.98;;;0.80;;
22005;SDS011;11167;46.988;15.470;2023-05-03T04:21:18;2.25;;;0.90;;
22005;SDS011;11167;46.988;15.470;2023-05-03T04:23:19;0.80;;;0.70;;
22005;SDS011;11167;46.988;15.470;2023-05-03T04:25:20;0.85;;;0.80;;
22005;SDS011;11167;46.988;15.470;2023-05-03T04:27:21;0.80;;;0.80;;
22005;SDS011;11167;46.988;15.470;2023-05-03T04:29:22;1.82;;;1.02;;
22005;SDS011;11167;46.988;15.470;2023-05-03T04:31:23;0.70;;;0.68;;
22005;SDS011;11167;46.988;15.470;2023-05-03T04:33:25;1.00;;;0.90;;
22005;SDS011;11167;46.988;15.470;2023-05-03T04:35:28;0.60;;;0.60;;
22005;SDS011;11167;46.988;15.470;2023-05-03T04:37:29;1.10;;;1.00;;
22005;SDS011;11167;46.988;15.470;2023-05-03T04:39:30;1.20;;;0.95;;
22005;SDS011;11167;46.988;15.470;2023-05-03T04:41:32;1.00;;;0.82;;
22005;SDS011;11167;46.988;15.470;2023-05-03T04:43:33;1.10;;;0.90;;
22005;SDS011;11167;46.988;15.470;2023-05-03T04:45:35;1.00;;;0.90;;
22005;SDS011;11167;46.988;15.470;2023-05-03T04:47:38;1.35;;;0.90;;
22005;SDS011;11167;46.988;15.470;2023-05-03T04:49:39;1.65;;;1.00;;
22005;SDS011;11167;46.988;15.470;2023-05-03T04:51:40;1.50;;;1.00;;
22005;SDS011;11167;46.988;15.470;2023-05-03T04:53:41;1.30;;;0.90;;
22005;SDS011;11167;46.988;15.470;2023-05-03T04:55:42;1.00;;;0.90;;
22005;SDS011;11167;46.988;15.470;2023-05-03T04:57:44;1.00;;;0.90;;
22005;SDS011;11167;46.988;15.470;2023-05-03T04:59:45;0.93;;;0.82;;
22005;SDS011;11167;46.988;15.470;2023-05-03T05:01:46;1.75;;;1.12;;
22005;SDS011;11167;46.988;15.470;2023-05-03T05:03:47;2.10;;;1.10;;
22005;SDS011;11167;46.988;15.470;2023-05-03T05:05:50;1.30;;;1.20;;
22005;SDS011;11167;46.988;15.470;2023-05-03T05:07:52;1.40;;;1.30;;
22005;SDS011;11167;46.988;15.470;2023-05-03T05:09:53;1.35;;;1.10;;
22005;SDS011;11167;46.988;15.470;2023-05-03T05:11:54;1.45;;;1.35;;
22005;SDS011;11167;46.988;15.470;2023-05-03T05:13:55;1.90;;;1.20;;
22005;SDS011;11167;46.988;15.470;2023-05-03T05:15:56;1.50;;;1.15;;
22005;SDS011;11167;46.988;15.470;2023-05-03T05:17:57;1.15;;;1.05;;
22005;SDS011;11167;46.988;15.470;2023-05-03T05:19:59;1.40;;;1.00;;
22005;SDS011;11167;46.988;15.470;2023-05-03T05:22:02;1.40;;;1.20;;
22005;SDS011;11167;46.988;15.470;2023-05-03T05:24:03;1.40;;;1.30;;
22005;SDS011;11167;46.988;15.470;2023-05-03T05:26:04;2.17;;;1.40;;
22005;SDS011;11167;46.988;15.470;2023-05-03T05:28:05;1.20;;;1.10;;
22005;SDS011;11167;46.988;15.470;2023-05-03T05:30:07;1.60;;;1.50;;
22005;SDS011;11167;46.988;15.470;2023-05-03T05:32:10;1.60;;;1.47;;
22005;SDS011;11167;46.988;15.470;2023-05-03T05:34:12;1.50;;;1.40;;
22005;SDS011;11167;46.988;15.470;2023-05-03T05:36:14;1.70;;;1.50;;
22005;SDS011;11167;46.988;15.470;2023-05-03T05:38:15;1.40;;;1.20;;
22005;SDS011;11167;46.988;15.470;2023-05-03T05:40:19;1.60;;;1.35;;
22005;SDS011;11167;46.988;15.470;2023-05-03T05:42:21;1.57;;;1.27;;
22005;SDS011;11167;46.988;15.470;2023-05-03T05:44:22;1.22;;;1.12;;
22005;SDS011;11167;46.988;15.470;2023-05-03T05:46:23;1.25;;;1.10;;
22005;SDS011;11167;46.988;15.470;2023-05-03T05:48:24;1.50;;;1.40;;
22005;SDS011;11167;46.988;15.470;2023-05-03T05:50:25;1.77;;;1.60;;
22005;SDS011;11167;46.988;15.470;2023-05-03T05:52:26;1.70;;;1.60;;
22005;SDS011;11167;46.988;15.470;2023-05-03T05:54:27;2.25;;;1.42;;
22005;SDS011;11167;46.988;15.470;2023-05-03T05:56:28;1.82;;;1.65;;
22005;SDS011;11167;46.988;15.470;2023-05-03T05:58:29;2.10;;;1.90;;
22005;SDS011;11167;46.988;15.470;2023-05-03T06:00:31;2.20;;;1.87;;
22005;SDS011;11167;46.988;15.470;2023-05-03T06:02:32;1.70;;;1.60;;
22005;SDS011;11167;46.988;15.470;2023-05-03T06:04:33;1.90;;;1.67;;
22005;SDS011;11167;46.988;15.470;2023-05-03T06:06:34;2.30;;;1.70;;
22005;SDS011;11167;46.988;15.470;2023-05-03T06:08:35;2.05;;;1.70;;
22005;SDS011;11167;46.988;15.470;2023-05-03T06:10:36;1.90;;;1.80;;
22005;SDS011;11167;46.988;15.470;2023-05-03T06:12:37;2.12;;;1.90;;
22005;SDS011;11167;46.988;15.470;2023-05-03T06:14:38;2.17;;;1.80;;
22005;SDS011;11167;46.988;15.470;2023-05-03T06:16:39;2.08;;;1.70;;
22005;SDS011;11167;46.988;15.470;2023-05-03T06:18:41;2.12;;;1.90;;
22005;SDS011;11167;46.988;15.470;2023-05-03T06:20:42;1.70;;;1.60;;
22005;SDS011;11167;46.988;15.470;2023-05-03T06:22:43;1.70;;;1.60;;
22005;SDS011;11167;46.988;15.470;2023-05-03T06:24:44;2.00;;;1.80;;
22005;SDS011;11167;46.988;15.470;2023-05-03T06:26:45;2.40;;;1.62;;
22005;SDS011;11167;46.988;15.470;2023-05-03T06:28:48;2.33;;;1.57;;
22005;SDS011;11167;46.988;15.470;2023-05-03T06:30:50;2.95;;;1.85;;
22005;SDS011;11167;46.988;15.470;2023-05-03T06:32:51;3.52;;;1.72;;
22005;SDS011;11167;46.988;15.470;2023-05-03T06:34:52;2.20;;;1.92;;
22005;SDS011;11167;46.988;15.470;2023-05-03T06:36:53;1.70;;;1.55;;
22005;SDS011;11167;46.988;15.470;2023-05-03T06:38:55;2.30;;;2.00;;
22005;SDS011;11167;46.988;15.470;2023-05-03T06:40:56;2.12;;;1.90;;
22005;SDS011;11167;46.988;15.470;2023-05-03T06:42:57;2.00;;;1.70;;
22005;SDS011;11167;46.988;15.470;2023-05-03T06:44:59;2.08;;;1.87;;
22005;SDS011;11167;46.988;15.470;2023-05-03T06:47:00;2.45;;;1.92;;
22005;SDS011;11167;46.988;15.470;2023-05-03T06:49:02;2.50;;;2.00;;
22005;SDS011;11167;46.988;15.470;2023-05-03T06:51:03;1.60;;;1.50;;
22005;SDS011;11167;46.988;15.470;2023-05-03T06:53:05;2.05;;;1.75;;
22005;SDS011;11167;46.988;15.470;2023-05-03T06:55:06;2.15;;;1.90;;
22005;SDS011;11167;46.988;15.470;2023-05-03T06:57:08;3.25;;;1.80;;
22005;SDS011;11167;46.988;15.470;2023-05-03T06:59:14;3.02;;;1.90;;
22005;SDS011;11167;46.988;15.470;2023-05-03T07:01:13;2.20;;;2.00;;
22005;SDS011;11167;46.988;15.470;2023-05-03T07:03:15;2.17;;;1.90;;
22005;SDS011;11167;46.988;15.470;2023-05-03T07:05:16;2.33;;;1.95;;
22005;SDS011;11167;46.988;15.470;2023-05-03T07:07:17;2.00;;;1.80;;
22005;SDS011;11167;46.988;15.470;2023-05-03T07:09:19;2.58;;;1.95;;
22005;SDS011;11167;46.988;15.470;2023-05-03T07:11:20;2.92;;;1.87;;
22005;SDS011;11167;46.988;15.470;2023-05-03T07:13:24;3.15;;;2.17;;
22005;SDS011;11167;46.988;15.470;2023-05-03T07:15:25;2.30;;;1.70;;
22005;SDS011;11167;46.988;15.470;2023-05-03T07:17:26;2.92;;;1.95;;
22005;SDS011;11167;46.988;15.470;2023-05-03T07:19:28;2.72;;;1.90;;
22005;SDS011;11167;46.988;15.470;2023-05-03T07:21:30;1.75;;;1.65;;
22005;SDS011;11167;46.988;15.470;2023-05-03T07:23:31;3.52;;;1.87;;
22005;SDS011;11167;46.988;15.470;2023-05-03T07:25:32;2.02;;;1.82;;
22005;SDS011;11167;46.988;15.470;2023-05-03T07:27:33;2.00;;;1.80;;
22005;SDS011;11167;46.988;15.470;2023-05-03T07:29:35;2.35;;;1.92;;
22005;SDS011;11167;46.988;15.470;2023-05-03T07:31:37;1.95;;;1.80;;
22005;SDS011;11167;46.988;15.470;2023-05-03T07:33:38;2.25;;;1.67;;
22005;SDS011;11167;46.988;15.470;2023-05-03T07:35:39;1.52;;;1.42;;
22005;SDS011;11167;46.988;15.470;2023-05-03T07:37:40;2.37;;;1.80;;
22005;SDS011;11167;46.988;15.470;2023-05-03T07:39:41;2.40;;;1.72;;
22005;SDS011;11167;46.988;15.470;2023-05-03T07:41:42;2.65;;;1.90;;
22005;SDS011;11167;46.988;15.470;2023-05-03T07:43:44;2.08;;;1.67;;
22005;SDS011;11167;46.988;15.470;2023-05-03T07:45:45;1.82;;;1.60;;
22005;SDS011;11167;46.988;15.470;2023-05-03T07:47:46;2.20;;;1.75;;
22005;SDS011;11167;46.988;15.470;2023-05-03T07:49:47;2.42;;;1.62;;
22005;SDS011;11167;46.988;15.470;2023-05-03T07:51:50;2.30;;;1.82;;
22005;SDS011;11167;46.988;15.470;2023-05-03T07:53:53;2.00;;;1.80;;
22005;SDS011;11167;46.988;15.470;2023-05-03T07:55:55;2.27;;;1.90;;
22005;SDS011;11167;46.988;15.470;2023-05-03T07:57:56;1.95;;;1.70;;
22005;SDS011;11167;46.988;15.470;2023-05-03T07:59:58;1.55;;;1.45;;
22005;SDS011;11167;46.988;15.470;2023-05-03T08:01:59;2.35;;;1.90;;
22005;SDS011;11167;46.988;15.470;2023-05-03T08:04:00;2.17;;;1.72;;
22005;SDS011;11167;46.988;15.470;2023-05-03T08:06:01;1.80;;;1.50;;
22005;SDS011;11167;46.988;15.470;2023-05-03T08:08:02;2.35;;;2.15;;
22005;SDS011;11167;46.988;15.470;2023-05-03T08:10:05;2.20;;;1.90;;
22005;SDS011;11167;46.988;15.470;2023-05-03T08:12:07;2.08;;;1.90;;
22005;SDS011;11167;46.988;15.470;2023-05-03T08:14:08;2.10;;;1.90;;
22005;SDS011;11167;46.988;15.470;2023-05-03T08:16:09;1.80;;;1.70;;
22005;SDS011;11167;46.988;15.470;2023-05-03T08:18:10;2.20;;;1.65;;
22005;SDS011;11167;46.988;15.470;2023-05-03T08:20:11;2.70;;;1.77;;
22005;SDS011;11167;46.988;15.470;2023-05-03T08:22:13;2.10;;;1.90;;
22005;SDS011;11167;46.988;15.470;2023-05-03T08:24:16;1.75;;;1.65;;
22005;SDS011;11167;46.988;15.470;2023-05-03T08:26:17;2.17;;;1.98;;
22005;SDS011;11167;46.988;15.470;2023-05-03T08:28:18;2.50;;;2.00;;
22005;SDS011;11167;46.988;15.470;2023-05-03T08:30:19;2.00;;;1.80;;
22005;SDS011;11167;46.988;15.470;2023-05-03T08:32:21;2.22;;;1.95;;
22005;SDS011;11167;46.988;15.470;2023-05-03T08:36:26;2.10;;;1.90;;
22005;SDS011;11167;46.988;15.470;2023-05-03T08:38:27;2.30;;;2.10;;
22005;SDS011;11167;46.988;15.470;2023-05-03T08:40:28;1.90;;;1.80;;
22005;SDS011;11167;46.988;15.470;2023-05-03T08:42:31;2.80;;;2.47;;
22005;SDS011;11167;46.988;15.470;2023-05-03T08:44:35;2.17;;;1.98;;
22005;SDS011;11167;46.988;15.470;2023-05-03T08:46:37;2.17;;;1.92;;
22005;SDS011;11167;46.988;15.470;2023-05-03T08:48:38;2.42;;;2.22;;
22005;SDS011;11167;46.988;15.470;2023-05-03T08:50:40;2.17;;;1.98;;
22005;SDS011;11167;46.988;15.470;2023-05-03T08:54:47;2.10;;;1.90;;
22005;SDS011;11167;46.988;15.470;2023-05-03T08:56:48;3.70;;;2.00;;
22005;SDS011;11167;46.988;15.470;2023-05-03T08:58:50;2.33;;;2.02;;
22005;SDS011;11167;46.988;15.470;2023-05-03T09:00:52;2.35;;;2.00;;
22005;SDS011;11167;46.988;15.470;2023-05-03T09:02:54;1.95;;;1.80;;
22005;SDS011;11167;46.988;15.470;2023-05-03T09:04:55;2.17;;;1.98;;
22005;SDS011;11167;46.988;15.470;2023-05-03T09:07:06;2.30;;;2.10;;
22005;SDS011;11167;46.988;15.470;2023-05-03T09:09:08;2.30;;;2.10;;
22005;SDS011;11167;46.988;15.470;2023-05-03T09:11:25;2.25;;;2.02;;
22005;SDS011;11167;46.988;15.470;2023-05-03T09:13:29;2.65;;;2.37;;
22005;SDS011;11167;46.988;15.470;2023-05-03T09:15:31;2.77;;;2.30;;
22005;SDS011;11167;46.988;15.470;2023-05-03T09:17:33;2.25;;;2.05;;
22005;SDS011;11167;46.988;15.470;2023-05-03T09:19:46;2.35;;;2.00;;
22005;SDS011;11167;46.988;15.470;2023-05-03T09:21:41;2.12;;;1.92;;
22005;SDS011;11167;46.988;15.470;2023-05-03T09:23:43;2.20;;;2.00;;
22005;SDS011;11167;46.988;15.470;2023-05-03T09:25:45;2.35;;;2.05;;
22005;SDS011;11167;46.988;15.470;2023-05-03T09:27:58;2.12;;;1.90;;
22005;SDS011;11167;46.988;15.470;2023-05-03T09:30:16;2.30;;;2.10;;
22005;SDS011;11167;46.988;15.470;2023-05-03T09:32:17;2.15;;;1.95;;
22005;SDS011;11167;46.988;15.470;2023-05-03T09:34:20;2.22;;;2.02;;
22005;SDS011;11167;46.988;15.470;2023-05-03T09:36:22;2.30;;;2.10;;
22005;SDS011;11167;46.988;15.470;2023-05-03T09:38:25;2.60;;;1.98;;
22005;SDS011;11167;46.988;15.470;2023-05-03T09:40:27;2.72;;;2.35;;
22005;SDS011;11167;46.988;15.470;2023-05-03T09:42:29;3.42;;;1.80;;
22005;SDS011;11167;46.988;15.470;2023-05-03T09:44:47;2.30;;;2.10;;
22005;SDS011;11167;46.988;15.470;2023-05-03T09:47:06;2.98;;;2.00;;
22005;SDS011;11167;46.988;15.470;2023-05-03T09:49:07;2.33;;;1.90;;
22005;SDS011;11167;46.988;15.470;2023-05-03T09:51:10;2.10;;;1.90;;
22005;SDS011;11167;46.988;15.470;2023-05-03T09:53:12;2.37;;;2.10;;
22005;SDS011;11167;46.988;15.470;2023-05-03T09:55:17;2.25;;;2.05;;
22005;SDS011;11167;46.988;15.470;2023-05-03T09:57:19;2.12;;;1.92;;
22005;SDS011;11167;46.988;15.470;2023-05-03T09:59:20;2.10;;;1.90;;
22005;SDS011;11167;46.988;15.470;2023-05-03T10:01:22;2.42;;;1.95;;
22005;SDS011;11167;46.988;15.470;2023-05-03T10:03:44;1.80;;;1.70;;
22005;SDS011;11167;46.988;15.470;2023-05-03T10:05:50;2.42;;;2.12;;
22005;SDS011;11167;46.988;15.470;2023-05-03T10:07:52;2.17;;;1.98;;
22005;SDS011;11167;46.988;15.470;2023-05-03T10:09:59;2.42;;;2.00;;
22005;SDS011;11167;46.988;15.470;2023-05-03T10:12:19;2.47;;;2.27;;
22005;SDS011;11167;46.988;15.470;2023-05-03T10:14:21;2.40;;;2.20;;
22005;SDS011;11167;46.988;15.470;2023-05-03T10:16:24;2.58;;;2.10;;
22005;SDS011;11167;46.988;15.470;2023-05-03T10:18:33;2.22;;;1.92;;
22005;SDS011;11167;46.988;15.470;2023-05-03T10:20:40;2.55;;;2.05;;
22005;SDS011;11167;46.988;15.470;2023-05-03T10:25:08;1.90;;;1.80;;
22005;SDS011;11167;46.988;15.470;2023-05-03T10:27:10;2.27;;;1.92;;
22005;SDS011;11167;46.988;15.470;2023-05-03T10:31:47;2.20;;;2.00;;
22005;SDS011;11167;46.988;15.470;2023-05-03T10:33:49;2.27;;;2.08;;
22005;SDS011;11167;46.988;15.470;2023-05-03T10:35:51;2.40;;;2.20;;
22005;SDS011;11167;46.988;15.470;2023-05-03T10:37:53;3.12;;;2.10;;
22005;SDS011;11167;46.988;15.470;2023-05-03T10:40:04;2.45;;;2.25;;
22005;SDS011;11167;46.988;15.470;2023-05-03T10:42:11;2.62;;;2.25;;
22005;SDS011;11167;46.988;15.470;2023-05-03T10:44:25;2.40;;;2.20;;
22005;SDS011;11167;46.988;15.470;2023-05-03T10:46:31;2.62;;;2.15;;
22005;SDS011;11167;46.988;15.470;2023-05-03T10:48:33;2.42;;;2.22;;
22005;SDS011;11167;46.988;15.470;2023-05-03T10:50:35;2.65;;;2.33;;
22005;SDS011;11167;46.988;15.470;2023-05-03T10:54:43;2.25;;;2.05;;
22005;SDS011;11167;46.988;15.470;2023-05-03T10:56:48;2.02;;;1.85;;
22005;SDS011;11167;46.988;15.470;2023-05-03T10:58:52;2.47;;;2.22;;
22005;SDS011;11167;46.988;15.470;2023-05-03T11:00:58;2.40;;;2.20;;
22005;SDS011;11167;46.988;15.470;2023-05-03T11:05:25;2.20;;;2.00;;
22005;SDS011;11167;46.988;15.470;2023-05-03T11:07:28;2.25;;;1.85;;
22005;SDS011;11167;46.988;15.470;2023-05-03T11:09:32;2.15;;;1.95;;
22005;SDS011;11167;46.988;15.470;2023-05-03T11:11:38;1.95;;;1.80;;
22005;SDS011;11167;46.988;15.470;2023-05-03T11:13:40;2.83;;;2.25;;
22005;SDS011;11167;46.988;15.470;2023-05-03T11:15:41;2.50;;;2.30;;
22005;SDS011;11167;46.988;15.470;2023-05-03T11:17:43;2.25;;;2.05;;
22005;SDS011;11167;46.988;15.470;2023-05-03T11:19:45;2.27;;;2.08;;
22005;SDS011;11167;46.988;15.470;2023-05-03T11:21:46;2.50;;;2.30;;
22005;SDS011;11167;46.988;15.470;2023-05-03T11:23:47;3.47;;;2.27;;
22005;SDS011;11167;46.988;15.470;2023-05-03T11:25:50;2.80;;;2.50;;
22005;SDS011;11167;46.988;15.470;2023-05-03T11:27:51;2.60;;;2.40;;
22005;SDS011;11167;46.988;15.470;2023-05-03T11:29:52;2.33;;;2.12;;
22005;SDS011;11167;46.988;15.470;2023-05-03T11:31:55;2.67;;;2.47;;
22005;SDS011;11167;46.988;15.470;2023-05-03T11:33:57;3.00;;;2.40;;
22005;SDS011;11167;46.988;15.470;2023-05-03T11:35:59;2.75;;;2.52;;
22005;SDS011;11167;46.988;15.470;2023-05-03T11:38:02;2.70;;;2.50;;
22005;SDS011;11167;46.988;15.470;2023-05-03T11:40:05;3.15;;;2.85;;
22005;SDS011;11167;46.988;15.470;2023-05-03T11:42:07;2.95;;;2.58;;
22005;SDS011;11167;46.988;15.470;2023-05-03T11:44:08;3.33;;;2.80;;
22005;SDS011;11167;46.988;15.470;2023-05-03T11:46:10;3.25;;;2.95;;
22005;SDS011;11167;46.988;15.470;2023-05-03T11:48:13;3.30;;;2.50;;
22005;SDS011;11167;46.988;15.470;2023-05-03T11:50:16;3.00;;;2.70;;
22005;SDS011;11167;46.988;15.470;2023-05-03T11:52:24;2.75;;;2.50;;
22005;SDS011;11167;46.988;15.470;2023-05-03T11:54:27;2.75;;;2.55;;
22005;SDS011;11167;46.988;15.470;2023-05-03T11:56:28;2.62;;;2.42;;
22005;SDS011;11167;46.988;15.470;2023-05-03T11:58:29;2.80;;;2.47;;
22005;SDS011;11167;46.988;15.470;2023-05-03T12:00:31;2.60;;;2.40;;
22005;SDS011;11167;46.988;15.470;2023-05-03T12:02:33;2.85;;;2.60;;
22005;SDS011;11167;46.988;15.470;2023-05-03T12:04:36;3.08;;;2.77;;
22005;SDS011;11167;46.988;15.470;2023-05-03T12:06:41;2.70;;;2.50;;
22005;SDS011;11167;46.988;15.470;2023-05-03T12:08:44;2.42;;;2.22;;
22005;SDS011;11167;46.988;15.470;2023-05-03T12:10:45;2.83;;;2.60;;
22005;SDS011;11167;46.988;15.470;2023-05-03T12:12:54;2.72;;;2.50;;
22005;SDS011;11167;46.988;15.470;2023-05-03T12:14:57;2.90;;;2.60;;
22005;SDS011;11167;46.988;15.470;2023-05-03T12:16:59;2.60;;;2.40;;
22005;SDS011;11167;46.988;15.470;2023-05-03T12:19:00;2.45;;;2.25;;
22005;SDS011;11167;46.988;15.470;2023-05-03T12:21:04;2.98;;;2.65;;
22005;SDS011;11167;46.988;15.470;2023-05-03T12:23:06;2.98;;;2.50;;
22005;SDS011;11167;46.988;15.470;2023-05-03T12:25:08;2.80;;;2.53;;
22005;SDS011;11167;46.988;15.470;2023-05-03T12:27:09;2.70;;;2.40;;
22005;SDS011;11167;46.988;15.470;2023-05-03T12:29:12;2.75;;;2.55;;